sensor_id;sensor_type;location;lat;lon;timestamp;P1;durP1;ratioP1;P2;durP2;ratioP2
29984;SDS011;17387;42.690;23.328;2023-02-03T00:00:32;9.50;;;4.88;;
29984;SDS011;17387;42.690;23.328;2023-02-03T00:02:57;7.45;;;4.18;;
29984;SDS011;17387;42.690;23.328;2023-02-03T00:05:22;7.85;;;4.57;;
29984;SDS011;17387;42.690;23.328;2023-02-03T00:07:48;8.90;;;4.70;;
29984;SDS011;17387;42.690;23.328;2023-02-03T00:10:13;8.23;;;5.28;;
29984;SDS011;17387;42.690;23.328;2023-02-03T00:12:38;8.10;;;5.13;;
29984;SDS011;17387;42.690;23.328;2023-02-03T00:15:04;11.48;;;5.68;;
29984;SDS011;17387;42.690;23.328;2023-02-03T00:17:29;11.25;;;5.47;;
29984;SDS011;17387;42.690;23.328;2023-02-03T00:19:55;12.63;;;5.60;;
29984;SDS011;17387;42.690;23.328;2023-02-03T00:22:20;8.98;;;4.80;;
29984;SDS011;17387;42.690;23.328;2023-02-03T00:24:45;10.18;;;4.90;;
29984;SDS011;17387;42.690;23.328;2023-02-03T00:27:10;8.93;;;4.97;;
29984;SDS011;17387;42.690;23.328;2023-02-03T00:29:36;9.02;;;5.20;;
29984;SDS011;17387;42.690;23.328;2023-02-03T00:32:01;9.05;;;4.50;;
29984;SDS011;17387;42.690;23.328;2023-02-03T00:34:27;10.13;;;5.05;;
29984;SDS011;17387;42.690;23.328;2023-02-03T00:36:53;9.13;;;5.47;;
29984;SDS011;17387;42.690;23.328;2023-02-03T00:39:19;8.90;;;5.10;;
29984;SDS011;17387;42.690;23.328;2023-02-03T00:41:44;10.07;;;5.53;;
29984;SDS011;17387;42.690;23.328;2023-02-03T00:44:09;8.68;;;5.45;;
29984;SDS011;17387;42.690;23.328;2023-02-03T00:46:35;9.25;;;5.28;;
29984;SDS011;17387;42.690;23.328;2023-02-03T00:49:00;8.63;;;5.88;;
29984;SDS011;17387;42.690;23.328;2023-02-03T00:51:25;7.05;;;4.80;;
29984;SDS011;17387;42.690;23.328;2023-02-03T00:53:51;8.68;;;5.28;;
29984;SDS011;17387;42.690;23.328;2023-02-03T00:56:16;8.18;;;5.28;;
29984;SDS011;17387;42.690;23.328;2023-02-03T00:58:41;8.65;;;5.13;;
29984;SDS011;17387;42.690;23.328;2023-02-03T01:01:07;7.07;;;5.07;;
29984;SDS011;17387;42.690;23.328;2023-02-03T01:03:32;7.15;;;4.55;;
29984;SDS011;17387;42.690;23.328;2023-02-03T01:06:07;9.20;;;5.25;;
29984;SDS011;17387;42.690;23.328;2023-02-03T01:08:33;9.27;;;5.65;;
29984;SDS011;17387;42.690;23.328;2023-02-03T01:10:58;8.68;;;5.72;;
29984;SDS011;17387;42.690;23.328;2023-02-03T01:13:23;9.60;;;5.05;;
29984;SDS011;17387;42.690;23.328;2023-02-03T01:15:49;8.18;;;4.80;;
29984;SDS011;17387;42.690;23.328;2023-02-03T01:18:14;9.65;;;4.78;;
29984;SDS011;17387;42.690;23.328;2023-02-03T01:20:39;9.90;;;4.53;;
29984;SDS011;17387;42.690;23.328;2023-02-03T01:23:04;8.15;;;4.45;;
29984;SDS011;17387;42.690;23.328;2023-02-03T01:25:30;7.07;;;4.05;;
29984;SDS011;17387;42.690;23.328;2023-02-03T01:27:55;6.68;;;4.28;;
29984;SDS011;17387;42.690;23.328;2023-02-03T01:30:20;6.60;;;3.33;;
29984;SDS011;17387;42.690;23.328;2023-02-03T01:32:45;8.25;;;3.42;;
29984;SDS011;17387;42.690;23.328;2023-02-03T01:35:11;8.25;;;3.85;;
29984;SDS011;17387;42.690;23.328;2023-02-03T01:37:36;7.60;;;3.88;;
29984;SDS011;17387;42.690;23.328;2023-02-03T01:40:02;7.78;;;3.83;;
29984;SDS011;17387;42.690;23.328;2023-02-03T01:42:27;6.90;;;3.63;;
29984;SDS011;17387;42.690;23.328;2023-02-03T01:44:56;5.18;;;3.30;;
29984;SDS011;17387;42.690;23.328;2023-02-03T01:47:30;5.78;;;3.35;;
29984;SDS011;17387;42.690;23.328;2023-02-03T01:52:24;4.63;;;2.72;;
29984;SDS011;17387;42.690;23.328;2023-02-03T01:54:50;4.68;;;2.58;;
29984;SDS011;17387;42.690;23.328;2023-02-03T01:57:19;4.70;;;2.78;;
29984;SDS011;17387;42.690;23.328;2023-02-03T01:59:46;4.82;;;2.85;;
29984;SDS011;17387;42.690;23.328;2023-02-03T02:02:12;3.85;;;2.40;;
29984;SDS011;17387;42.690;23.328;2023-02-03T02:04:52;6.40;;;2.70;;
29984;SDS011;17387;42.690;23.328;2023-02-03T02:07:19;5.15;;;3.10;;
29984;SDS011;17387;42.690;23.328;2023-02-03T02:09:44;5.55;;;2.50;;
29984;SDS011;17387;42.690;23.328;2023-02-03T02:12:11;4.10;;;2.90;;
29984;SDS011;17387;42.690;23.328;2023-02-03T02:14:36;4.57;;;2.67;;
29984;SDS011;17387;42.690;23.328;2023-02-03T02:17:05;5.47;;;2.72;;
29984;SDS011;17387;42.690;23.328;2023-02-03T02:22:07;4.47;;;2.58;;
29984;SDS011;17387;42.690;23.328;2023-02-03T02:32:34;5.55;;;3.15;;
29984;SDS011;17387;42.690;23.328;2023-02-03T02:42:51;6.22;;;3.70;;
29984;SDS011;17387;42.690;23.328;2023-02-03T02:45:43;6.97;;;3.75;;
29984;SDS011;17387;42.690;23.328;2023-02-03T02:48:09;4.35;;;3.47;;
29984;SDS011;17387;42.690;23.328;2023-02-03T02:50:39;5.38;;;3.70;;
29984;SDS011;17387;42.690;23.328;2023-02-03T02:53:06;6.32;;;3.75;;
29984;SDS011;17387;42.690;23.328;2023-02-03T02:55:32;7.10;;;3.95;;
29984;SDS011;17387;42.690;23.328;2023-02-03T02:58:00;7.05;;;3.80;;
29984;SDS011;17387;42.690;23.328;2023-02-03T03:00:28;5.47;;;3.80;;
29984;SDS011;17387;42.690;23.328;2023-02-03T03:02:54;6.97;;;3.67;;
29984;SDS011;17387;42.690;23.328;2023-02-03T03:05:21;6.25;;;3.72;;
29984;SDS011;17387;42.690;23.328;2023-02-03T03:07:49;5.32;;;3.65;;
29984;SDS011;17387;42.690;23.328;2023-02-03T03:10:17;6.30;;;3.10;;
29984;SDS011;17387;42.690;23.328;2023-02-03T03:12:48;3.80;;;2.97;;
29984;SDS011;17387;42.690;23.328;2023-02-03T03:15:19;3.67;;;3.25;;
29984;SDS011;17387;42.690;23.328;2023-02-03T03:17:50;4.75;;;3.10;;
29984;SDS011;17387;42.690;23.328;2023-02-03T03:20:19;4.97;;;3.67;;
29984;SDS011;17387;42.690;23.328;2023-02-03T03:22:47;4.90;;;3.40;;
29984;SDS011;17387;42.690;23.328;2023-02-03T03:25:16;6.05;;;4.07;;
29984;SDS011;17387;42.690;23.328;2023-02-03T03:27:44;7.90;;;3.80;;
29984;SDS011;17387;42.690;23.328;2023-02-03T03:30:12;5.70;;;3.58;;
29984;SDS011;17387;42.690;23.328;2023-02-03T03:32:38;5.22;;;3.33;;
29984;SDS011;17387;42.690;23.328;2023-02-03T03:35:04;3.38;;;3.03;;
29984;SDS011;17387;42.690;23.328;2023-02-03T03:37:34;6.97;;;3.97;;
29984;SDS011;17387;42.690;23.328;2023-02-03T03:40:01;4.60;;;3.20;;
29984;SDS011;17387;42.690;23.328;2023-02-03T03:48:02;3.47;;;2.70;;
29984;SDS011;17387;42.690;23.328;2023-02-03T03:50:31;3.97;;;2.85;;
29984;SDS011;17387;42.690;23.328;2023-02-03T03:52:57;4.68;;;3.17;;
29984;SDS011;17387;42.690;23.328;2023-02-03T03:55:24;5.15;;;2.95;;
29984;SDS011;17387;42.690;23.328;2023-02-03T03:57:59;4.28;;;3.05;;
29984;SDS011;17387;42.690;23.328;2023-02-03T04:00:26;4.90;;;3.33;;
29984;SDS011;17387;42.690;23.328;2023-02-03T04:02:53;3.28;;;2.65;;
29984;SDS011;17387;42.690;23.328;2023-02-03T04:05:22;6.38;;;3.58;;
29984;SDS011;17387;42.690;23.328;2023-02-03T04:07:48;4.13;;;3.13;;
29984;SDS011;17387;42.690;23.328;2023-02-03T04:10:22;5.15;;;3.47;;
29984;SDS011;17387;42.690;23.328;2023-02-03T04:12:52;5.82;;;3.80;;
29984;SDS011;17387;42.690;23.328;2023-02-03T04:15:17;5.40;;;3.50;;
29984;SDS011;17387;42.690;23.328;2023-02-03T04:17:43;4.78;;;3.50;;
29984;SDS011;17387;42.690;23.328;2023-02-03T04:20:08;5.68;;;3.92;;
29984;SDS011;17387;42.690;23.328;2023-02-03T04:22:33;5.75;;;3.90;;
29984;SDS011;17387;42.690;23.328;2023-02-03T04:24:59;5.05;;;3.17;;
29984;SDS011;17387;42.690;23.328;2023-02-03T04:27:25;6.00;;;3.38;;
29984;SDS011;17387;42.690;23.328;2023-02-03T04:29:50;5.60;;;3.25;;
29984;SDS011;17387;42.690;23.328;2023-02-03T04:32:15;4.95;;;3.20;;
29984;SDS011;17387;42.690;23.328;2023-02-03T04:34:41;4.18;;;3.08;;
29984;SDS011;17387;42.690;23.328;2023-02-03T04:37:08;5.22;;;3.22;;
29984;SDS011;17387;42.690;23.328;2023-02-03T04:39:34;5.78;;;3.03;;
29984;SDS011;17387;42.690;23.328;2023-02-03T04:41:59;6.15;;;3.40;;
29984;SDS011;17387;42.690;23.328;2023-02-03T04:44:24;8.18;;;3.67;;
29984;SDS011;17387;42.690;23.328;2023-02-03T04:46:52;4.68;;;3.33;;
29984;SDS011;17387;42.690;23.328;2023-02-03T04:49:17;5.30;;;3.75;;
29984;SDS011;17387;42.690;23.328;2023-02-03T04:51:43;5.10;;;3.60;;
29984;SDS011;17387;42.690;23.328;2023-02-03T04:54:14;4.82;;;3.55;;
29984;SDS011;17387;42.690;23.328;2023-02-03T04:56:41;4.22;;;3.50;;
29984;SDS011;17387;42.690;23.328;2023-02-03T04:59:07;4.90;;;3.70;;
29984;SDS011;17387;42.690;23.328;2023-02-03T05:01:32;3.80;;;3.20;;
29984;SDS011;17387;42.690;23.328;2023-02-03T05:03:57;5.00;;;3.97;;
29984;SDS011;17387;42.690;23.328;2023-02-03T05:06:23;6.20;;;4.10;;
29984;SDS011;17387;42.690;23.328;2023-02-03T05:08:49;9.20;;;4.13;;
29984;SDS011;17387;42.690;23.328;2023-02-03T05:11:15;5.97;;;4.40;;
29984;SDS011;17387;42.690;23.328;2023-02-03T05:13:40;5.57;;;3.65;;
29984;SDS011;17387;42.690;23.328;2023-02-03T05:16:05;8.75;;;3.92;;
29984;SDS011;17387;42.690;23.328;2023-02-03T05:18:31;7.35;;;3.67;;
29984;SDS011;17387;42.690;23.328;2023-02-03T05:20:56;6.45;;;4.13;;
29984;SDS011;17387;42.690;23.328;2023-02-03T05:23:21;7.00;;;4.43;;
29984;SDS011;17387;42.690;23.328;2023-02-03T05:25:46;5.93;;;4.00;;
29984;SDS011;17387;42.690;23.328;2023-02-03T05:28:12;7.47;;;4.20;;
29984;SDS011;17387;42.690;23.328;2023-02-03T05:30:37;8.25;;;3.83;;
29984;SDS011;17387;42.690;23.328;2023-02-03T05:33:02;6.40;;;3.42;;
29984;SDS011;17387;42.690;23.328;2023-02-03T05:35:27;5.72;;;3.13;;
29984;SDS011;17387;42.690;23.328;2023-02-03T05:37:53;6.65;;;4.13;;
29984;SDS011;17387;42.690;23.328;2023-02-03T05:40:21;4.75;;;3.88;;
29984;SDS011;17387;42.690;23.328;2023-02-03T05:43:05;6.80;;;4.30;;
29984;SDS011;17387;42.690;23.328;2023-02-03T05:45:34;7.03;;;4.20;;
29984;SDS011;17387;42.690;23.328;2023-02-03T05:48:03;4.25;;;3.70;;
29984;SDS011;17387;42.690;23.328;2023-02-03T05:50:29;6.53;;;4.45;;
29984;SDS011;17387;42.690;23.328;2023-02-03T05:52:58;8.15;;;4.57;;
29984;SDS011;17387;42.690;23.328;2023-02-03T05:55:24;5.88;;;4.72;;
29984;SDS011;17387;42.690;23.328;2023-02-03T05:57:49;7.88;;;4.93;;
29984;SDS011;17387;42.690;23.328;2023-02-03T06:00:15;7.68;;;4.90;;
29984;SDS011;17387;42.690;23.328;2023-02-03T06:02:40;6.82;;;4.78;;
29984;SDS011;17387;42.690;23.328;2023-02-03T06:05:06;7.18;;;4.50;;
29984;SDS011;17387;42.690;23.328;2023-02-03T06:07:31;5.28;;;4.05;;
29984;SDS011;17387;42.690;23.328;2023-02-03T06:09:56;8.52;;;5.20;;
29984;SDS011;17387;42.690;23.328;2023-02-03T06:12:21;7.40;;;4.97;;
29984;SDS011;17387;42.690;23.328;2023-02-03T06:14:47;6.97;;;4.47;;
29984;SDS011;17387;42.690;23.328;2023-02-03T06:17:12;5.63;;;4.63;;
29984;SDS011;17387;42.690;23.328;2023-02-03T06:19:37;5.88;;;4.68;;
29984;SDS011;17387;42.690;23.328;2023-02-03T06:22:03;5.18;;;4.50;;
29984;SDS011;17387;42.690;23.328;2023-02-03T06:24:28;7.30;;;5.03;;
29984;SDS011;17387;42.690;23.328;2023-02-03T06:26:53;6.95;;;5.20;;
29984;SDS011;17387;42.690;23.328;2023-02-03T06:29:24;6.25;;;4.72;;
29984;SDS011;17387;42.690;23.328;2023-02-03T06:31:49;7.70;;;5.38;;
29984;SDS011;17387;42.690;23.328;2023-02-03T06:34:14;8.57;;;5.32;;
29984;SDS011;17387;42.690;23.328;2023-02-03T06:36:40;8.75;;;4.88;;
29984;SDS011;17387;42.690;23.328;2023-02-03T06:39:05;9.13;;;5.43;;
29984;SDS011;17387;42.690;23.328;2023-02-03T06:41:30;7.85;;;5.13;;
29984;SDS011;17387;42.690;23.328;2023-02-03T06:43:56;9.38;;;4.40;;
29984;SDS011;17387;42.690;23.328;2023-02-03T06:46:22;6.75;;;4.80;;
29984;SDS011;17387;42.690;23.328;2023-02-03T06:48:47;5.93;;;4.32;;
29984;SDS011;17387;42.690;23.328;2023-02-03T06:51:12;5.90;;;4.38;;
29984;SDS011;17387;42.690;23.328;2023-02-03T06:53:37;6.35;;;4.00;;
29984;SDS011;17387;42.690;23.328;2023-02-03T06:56:03;4.63;;;3.00;;
29984;SDS011;17387;42.690;23.328;2023-02-03T06:58:28;9.02;;;3.53;;
29984;SDS011;17387;42.690;23.328;2023-02-03T07:00:54;5.10;;;3.63;;
29984;SDS011;17387;42.690;23.328;2023-02-03T07:03:19;6.15;;;4.03;;
29984;SDS011;17387;42.690;23.328;2023-02-03T07:05:45;6.07;;;3.50;;
29984;SDS011;17387;42.690;23.328;2023-02-03T07:08:12;6.70;;;3.70;;
29984;SDS011;17387;42.690;23.328;2023-02-03T07:10:38;5.30;;;3.40;;
29984;SDS011;17387;42.690;23.328;2023-02-03T07:13:04;7.28;;;3.90;;
29984;SDS011;17387;42.690;23.328;2023-02-03T07:15:29;6.13;;;3.67;;
29984;SDS011;17387;42.690;23.328;2023-02-03T07:17:55;6.95;;;4.10;;
29984;SDS011;17387;42.690;23.328;2023-02-03T07:20:21;5.88;;;3.22;;
29984;SDS011;17387;42.690;23.328;2023-02-03T07:22:50;7.07;;;4.55;;
29984;SDS011;17387;42.690;23.328;2023-02-03T07:25:15;10.55;;;4.47;;
29984;SDS011;17387;42.690;23.328;2023-02-03T07:27:41;7.90;;;4.07;;
29984;SDS011;17387;42.690;23.328;2023-02-03T07:30:06;8.52;;;4.53;;
29984;SDS011;17387;42.690;23.328;2023-02-03T07:32:32;6.30;;;4.28;;
29984;SDS011;17387;42.690;23.328;2023-02-03T07:34:57;11.05;;;5.07;;
29984;SDS011;17387;42.690;23.328;2023-02-03T07:37:22;10.80;;;5.18;;
29984;SDS011;17387;42.690;23.328;2023-02-03T07:39:48;9.25;;;4.57;;
29984;SDS011;17387;42.690;23.328;2023-02-03T07:42:13;5.60;;;3.92;;
29984;SDS011;17387;42.690;23.328;2023-02-03T07:44:41;7.00;;;4.18;;
29984;SDS011;17387;42.690;23.328;2023-02-03T07:47:07;7.20;;;4.32;;
29984;SDS011;17387;42.690;23.328;2023-02-03T07:49:32;6.88;;;3.83;;
29984;SDS011;17387;42.690;23.328;2023-02-03T07:51:57;4.57;;;2.60;;
29984;SDS011;17387;42.690;23.328;2023-02-03T07:54:22;6.57;;;3.25;;
29984;SDS011;17387;42.690;23.328;2023-02-03T07:56:48;4.88;;;3.25;;
29984;SDS011;17387;42.690;23.328;2023-02-03T07:59:15;4.47;;;2.67;;
29984;SDS011;17387;42.690;23.328;2023-02-03T08:01:41;6.10;;;3.30;;
29984;SDS011;17387;42.690;23.328;2023-02-03T08:04:06;6.03;;;3.40;;
29984;SDS011;17387;42.690;23.328;2023-02-03T08:06:32;5.03;;;3.13;;
29984;SDS011;17387;42.690;23.328;2023-02-03T08:09:00;4.50;;;2.85;;
29984;SDS011;17387;42.690;23.328;2023-02-03T08:11:25;6.90;;;2.38;;
29984;SDS011;17387;42.690;23.328;2023-02-03T08:13:51;6.50;;;2.70;;
29984;SDS011;17387;42.690;23.328;2023-02-03T08:16:16;5.82;;;3.58;;
29984;SDS011;17387;42.690;23.328;2023-02-03T08:18:42;5.13;;;2.83;;
29984;SDS011;17387;42.690;23.328;2023-02-03T08:21:07;3.72;;;2.63;;
29984;SDS011;17387;42.690;23.328;2023-02-03T08:23:33;6.25;;;3.20;;
29984;SDS011;17387;42.690;23.328;2023-02-03T08:25:58;5.10;;;3.08;;
29984;SDS011;17387;42.690;23.328;2023-02-03T08:28:23;6.65;;;2.80;;
29984;SDS011;17387;42.690;23.328;2023-02-03T08:30:49;5.28;;;2.90;;
29984;SDS011;17387;42.690;23.328;2023-02-03T08:33:15;6.47;;;3.22;;
29984;SDS011;17387;42.690;23.328;2023-02-03T08:35:43;7.32;;;2.97;;
29984;SDS011;17387;42.690;23.328;2023-02-03T08:38:09;6.85;;;3.10;;
29984;SDS011;17387;42.690;23.328;2023-02-03T08:40:34;4.38;;;2.50;;
29984;SDS011;17387;42.690;23.328;2023-02-03T08:42:59;4.38;;;2.95;;
29984;SDS011;17387;42.690;23.328;2023-02-03T08:45:24;5.13;;;3.13;;
29984;SDS011;17387;42.690;23.328;2023-02-03T08:47:50;6.15;;;3.15;;
29984;SDS011;17387;42.690;23.328;2023-02-03T08:50:18;5.70;;;2.95;;
29984;SDS011;17387;42.690;23.328;2023-02-03T08:52:43;5.32;;;3.50;;
29984;SDS011;17387;42.690;23.328;2023-02-03T08:55:09;3.72;;;2.67;;
29984;SDS011;17387;42.690;23.328;2023-02-03T08:57:35;5.72;;;2.70;;
29984;SDS011;17387;42.690;23.328;2023-02-03T09:00:03;4.60;;;2.50;;
29984;SDS011;17387;42.690;23.328;2023-02-03T09:02:31;5.13;;;2.80;;
29984;SDS011;17387;42.690;23.328;2023-02-03T09:04:56;8.43;;;4.13;;
29984;SDS011;17387;42.690;23.328;2023-02-03T09:07:22;5.22;;;2.97;;
29984;SDS011;17387;42.690;23.328;2023-02-03T09:09:47;16.98;;;4.05;;
29984;SDS011;17387;42.690;23.328;2023-02-03T09:12:13;5.40;;;2.50;;
29984;SDS011;17387;42.690;23.328;2023-02-03T09:14:38;9.27;;;2.80;;
29984;SDS011;17387;42.690;23.328;2023-02-03T09:17:04;4.97;;;2.80;;
29984;SDS011;17387;42.690;23.328;2023-02-03T09:19:34;4.75;;;2.65;;
29984;SDS011;17387;42.690;23.328;2023-02-03T09:22:05;7.38;;;3.35;;
29984;SDS011;17387;42.690;23.328;2023-02-03T09:24:33;5.22;;;2.50;;
29984;SDS011;17387;42.690;23.328;2023-02-03T09:26:58;6.18;;;3.35;;
29984;SDS011;17387;42.690;23.328;2023-02-03T09:29:25;5.93;;;3.20;;
29984;SDS011;17387;42.690;23.328;2023-02-03T09:31:50;5.88;;;3.45;;
29984;SDS011;17387;42.690;23.328;2023-02-03T09:34:19;7.57;;;2.90;;
29984;SDS011;17387;42.690;23.328;2023-02-03T09:36:44;5.25;;;3.20;;
29984;SDS011;17387;42.690;23.328;2023-02-03T09:39:12;5.22;;;3.10;;
29984;SDS011;17387;42.690;23.328;2023-02-03T09:41:45;4.00;;;3.00;;
29984;SDS011;17387;42.690;23.328;2023-02-03T09:44:19;7.60;;;3.00;;
29984;SDS011;17387;42.690;23.328;2023-02-03T09:46:59;5.18;;;2.78;;
29984;SDS011;17387;42.690;23.328;2023-02-03T09:49:30;6.50;;;2.97;;
29984;SDS011;17387;42.690;23.328;2023-02-03T09:51:58;5.00;;;2.80;;
29984;SDS011;17387;42.690;23.328;2023-02-03T10:00:03;3.42;;;2.40;;
29984;SDS011;17387;42.690;23.328;2023-02-03T10:07:53;2.58;;;1.80;;
29984;SDS011;17387;42.690;23.328;2023-02-03T10:10:38;5.43;;;2.88;;
29984;SDS011;17387;42.690;23.328;2023-02-03T10:17:56;5.15;;;3.42;;
29984;SDS011;17387;42.690;23.328;2023-02-03T10:22:58;4.03;;;2.78;;
29984;SDS011;17387;42.690;23.328;2023-02-03T10:25:33;6.53;;;3.28;;
29984;SDS011;17387;42.690;23.328;2023-02-03T10:28:21;7.60;;;2.85;;
29984;SDS011;17387;42.690;23.328;2023-02-03T10:30:52;4.85;;;2.80;;
29984;SDS011;17387;42.690;23.328;2023-02-03T10:41:15;8.43;;;2.85;;
29984;SDS011;17387;42.690;23.328;2023-02-03T10:43:41;5.53;;;3.28;;
29984;SDS011;17387;42.690;23.328;2023-02-03T10:46:15;8.52;;;2.83;;
29984;SDS011;17387;42.690;23.328;2023-02-03T10:48:40;6.38;;;3.30;;
29984;SDS011;17387;42.690;23.328;2023-02-03T10:51:22;5.53;;;2.97;;
29984;SDS011;17387;42.690;23.328;2023-02-03T10:53:55;4.80;;;2.70;;
29984;SDS011;17387;42.690;23.328;2023-02-03T10:58:55;4.10;;;1.65;;
29984;SDS011;17387;42.690;23.328;2023-02-03T11:01:23;3.65;;;2.08;;
29984;SDS011;17387;42.690;23.328;2023-02-03T11:06:53;4.07;;;1.90;;
29984;SDS011;17387;42.690;23.328;2023-02-03T11:09:27;3.72;;;2.15;;
29984;SDS011;17387;42.690;23.328;2023-02-03T11:14:50;3.55;;;1.98;;
29984;SDS011;17387;42.690;23.328;2023-02-03T11:17:16;3.90;;;2.45;;
29984;SDS011;17387;42.690;23.328;2023-02-03T11:19:43;6.63;;;2.75;;
29984;SDS011;17387;42.690;23.328;2023-02-03T11:22:24;2.90;;;1.85;;
29984;SDS011;17387;42.690;23.328;2023-02-03T11:24:50;4.53;;;2.58;;
29984;SDS011;17387;42.690;23.328;2023-02-03T11:27:21;2.97;;;2.00;;
29984;SDS011;17387;42.690;23.328;2023-02-03T11:29:49;4.00;;;2.08;;
29984;SDS011;17387;42.690;23.328;2023-02-03T11:32:17;3.60;;;1.80;;
29984;SDS011;17387;42.690;23.328;2023-02-03T11:34:56;3.55;;;2.22;;
29984;SDS011;17387;42.690;23.328;2023-02-03T11:39:48;3.97;;;2.15;;
29984;SDS011;17387;42.690;23.328;2023-02-03T11:42:23;7.28;;;2.65;;
29984;SDS011;17387;42.690;23.328;2023-02-03T11:45:06;7.05;;;3.00;;
29984;SDS011;17387;42.690;23.328;2023-02-03T11:47:49;4.85;;;2.45;;
29984;SDS011;17387;42.690;23.328;2023-02-03T12:06:22;3.88;;;1.98;;
29984;SDS011;17387;42.690;23.328;2023-02-03T12:34:24;3.67;;;1.80;;
29984;SDS011;17387;42.690;23.328;2023-02-03T12:37:01;3.90;;;1.98;;
29984;SDS011;17387;42.690;23.328;2023-02-03T12:42:26;3.35;;;2.10;;
29984;SDS011;17387;42.690;23.328;2023-02-03T12:45:15;5.28;;;1.90;;
29984;SDS011;17387;42.690;23.328;2023-02-03T12:50:14;8.85;;;1.92;;
29984;SDS011;17387;42.690;23.328;2023-02-03T12:52:45;4.25;;;2.35;;
29984;SDS011;17387;42.690;23.328;2023-02-03T12:58:05;5.40;;;2.25;;
29984;SDS011;17387;42.690;23.328;2023-02-03T13:03:09;5.03;;;2.47;;
29984;SDS011;17387;42.690;23.328;2023-02-03T13:08:08;4.53;;;2.38;;
29984;SDS011;17387;42.690;23.328;2023-02-03T13:10:41;5.72;;;2.58;;
29984;SDS011;17387;42.690;23.328;2023-02-03T13:13:10;5.00;;;2.40;;
29984;SDS011;17387;42.690;23.328;2023-02-03T13:15:43;4.50;;;2.78;;
29984;SDS011;17387;42.690;23.328;2023-02-03T13:18:25;7.40;;;2.15;;
29984;SDS011;17387;42.690;23.328;2023-02-03T13:20:53;2.55;;;1.75;;
29984;SDS011;17387;42.690;23.328;2023-02-03T13:23:19;5.65;;;2.88;;
29984;SDS011;17387;42.690;23.328;2023-02-03T13:25:57;6.03;;;2.97;;
29984;SDS011;17387;42.690;23.328;2023-02-03T13:41:52;3.63;;;2.53;;
29984;SDS011;17387;42.690;23.328;2023-02-03T13:44:20;4.68;;;2.60;;
29984;SDS011;17387;42.690;23.328;2023-02-03T13:46:52;4.40;;;2.83;;
29984;SDS011;17387;42.690;23.328;2023-02-03T13:49:32;3.95;;;2.53;;
29984;SDS011;17387;42.690;23.328;2023-02-03T13:52:43;5.93;;;3.28;;
29984;SDS011;17387;42.690;23.328;2023-02-03T13:55:24;4.18;;;2.58;;
29984;SDS011;17387;42.690;23.328;2023-02-03T13:57:49;6.90;;;2.95;;
29984;SDS011;17387;42.690;23.328;2023-02-03T14:00:57;6.45;;;3.47;;
29984;SDS011;17387;42.690;23.328;2023-02-03T14:05:50;4.60;;;2.80;;
29984;SDS011;17387;42.690;23.328;2023-02-03T14:13:19;7.87;;;3.30;;
29984;SDS011;17387;42.690;23.328;2023-02-03T14:15:45;14.13;;;3.07;;
29984;SDS011;17387;42.690;23.328;2023-02-03T14:18:31;8.63;;;3.65;;
29984;SDS011;17387;42.690;23.328;2023-02-03T14:21:08;9.60;;;3.60;;
29984;SDS011;17387;42.690;23.328;2023-02-03T14:23:37;6.03;;;3.17;;
29984;SDS011;17387;42.690;23.328;2023-02-03T14:26:07;6.85;;;3.85;;
29984;SDS011;17387;42.690;23.328;2023-02-03T14:28:43;5.40;;;3.20;;
29984;SDS011;17387;42.690;23.328;2023-02-03T14:36:26;5.88;;;3.45;;
29984;SDS011;17387;42.690;23.328;2023-02-03T14:38:57;7.95;;;3.85;;
29984;SDS011;17387;42.690;23.328;2023-02-03T14:47:33;7.15;;;3.85;;
29984;SDS011;17387;42.690;23.328;2023-02-03T14:58:17;5.82;;;2.90;;
29984;SDS011;17387;42.690;23.328;2023-02-03T15:00:45;5.68;;;3.05;;
29984;SDS011;17387;42.690;23.328;2023-02-03T15:03:15;7.97;;;3.17;;
29984;SDS011;17387;42.690;23.328;2023-02-03T15:05:55;6.15;;;2.80;;
29984;SDS011;17387;42.690;23.328;2023-02-03T15:13:54;8.20;;;3.47;;
29984;SDS011;17387;42.690;23.328;2023-02-03T15:16:20;15.65;;;3.67;;
29984;SDS011;17387;42.690;23.328;2023-02-03T15:18:52;11.52;;;4.68;;
29984;SDS011;17387;42.690;23.328;2023-02-03T15:23:43;9.83;;;5.27;;
29984;SDS011;17387;42.690;23.328;2023-02-03T15:26:15;11.55;;;6.22;;
29984;SDS011;17387;42.690;23.328;2023-02-03T15:28:42;16.05;;;6.90;;
29984;SDS011;17387;42.690;23.328;2023-02-03T15:31:16;14.48;;;6.97;;
29984;SDS011;17387;42.690;23.328;2023-02-03T15:33:46;14.77;;;6.20;;
29984;SDS011;17387;42.690;23.328;2023-02-03T15:36:18;13.70;;;6.33;;
29984;SDS011;17387;42.690;23.328;2023-02-03T15:41:15;13.90;;;5.97;;
29984;SDS011;17387;42.690;23.328;2023-02-03T15:43:57;12.43;;;5.97;;
29984;SDS011;17387;42.690;23.328;2023-02-03T15:49:06;13.45;;;6.82;;
29984;SDS011;17387;42.690;23.328;2023-02-03T15:51:34;13.95;;;7.20;;
29984;SDS011;17387;42.690;23.328;2023-02-03T15:58:57;11.80;;;5.18;;
29984;SDS011;17387;42.690;23.328;2023-02-03T16:01:24;14.27;;;5.65;;
29984;SDS011;17387;42.690;23.328;2023-02-03T16:03:52;12.95;;;5.05;;
29984;SDS011;17387;42.690;23.328;2023-02-03T16:06:31;12.77;;;6.32;;
29984;SDS011;17387;42.690;23.328;2023-02-03T16:09:03;11.48;;;6.88;;
29984;SDS011;17387;42.690;23.328;2023-02-03T16:14:09;15.70;;;7.20;;
29984;SDS011;17387;42.690;23.328;2023-02-03T16:16:41;16.35;;;7.07;;
29984;SDS011;17387;42.690;23.328;2023-02-03T16:19:14;11.65;;;6.65;;
29984;SDS011;17387;42.690;23.328;2023-02-03T16:33:01;15.82;;;6.60;;
29984;SDS011;17387;42.690;23.328;2023-02-03T16:35:49;13.32;;;6.60;;
29984;SDS011;17387;42.690;23.328;2023-02-03T16:38:33;15.50;;;6.57;;
29984;SDS011;17387;42.690;23.328;2023-02-03T16:41:17;15.75;;;7.40;;
29984;SDS011;17387;42.690;23.328;2023-02-03T16:44:03;17.30;;;8.32;;
29984;SDS011;17387;42.690;23.328;2023-02-03T16:46:47;15.82;;;7.35;;
29984;SDS011;17387;42.690;23.328;2023-02-03T16:49:31;11.90;;;6.50;;
29984;SDS011;17387;42.690;23.328;2023-02-03T16:52:14;16.45;;;7.82;;
29984;SDS011;17387;42.690;23.328;2023-02-03T16:54:40;13.02;;;6.05;;
29984;SDS011;17387;42.690;23.328;2023-02-03T16:57:05;13.10;;;6.25;;
29984;SDS011;17387;42.690;23.328;2023-02-03T16:59:33;16.35;;;6.85;;
29984;SDS011;17387;42.690;23.328;2023-02-03T17:02:09;19.90;;;7.47;;
29984;SDS011;17387;42.690;23.328;2023-02-03T17:04:34;14.32;;;7.22;;
29984;SDS011;17387;42.690;23.328;2023-02-03T17:40:29;13.50;;;5.53;;
29984;SDS011;17387;42.690;23.328;2023-02-03T17:45:29;14.45;;;7.50;;
29984;SDS011;17387;42.690;23.328;2023-02-03T17:47:57;20.05;;;10.18;;
29984;SDS011;17387;42.690;23.328;2023-02-03T17:50:28;18.30;;;8.52;;
29984;SDS011;17387;42.690;23.328;2023-02-03T17:52:55;19.02;;;9.38;;
29984;SDS011;17387;42.690;23.328;2023-02-03T17:55:21;13.93;;;6.60;;
29984;SDS011;17387;42.690;23.328;2023-02-03T17:57:47;19.65;;;8.27;;
29984;SDS011;17387;42.690;23.328;2023-02-03T18:00:30;20.40;;;8.50;;
29984;SDS011;17387;42.690;23.328;2023-02-03T18:02:57;21.83;;;10.18;;
29984;SDS011;17387;42.690;23.328;2023-02-03T18:05:25;17.85;;;9.85;;
29984;SDS011;17387;42.690;23.328;2023-02-03T18:08:04;16.27;;;8.93;;
29984;SDS011;17387;42.690;23.328;2023-02-03T18:10:54;19.42;;;8.30;;
29984;SDS011;17387;42.690;23.328;2023-02-03T18:13:24;19.10;;;8.70;;
29984;SDS011;17387;42.690;23.328;2023-02-03T18:18:51;24.70;;;9.32;;
29984;SDS011;17387;42.690;23.328;2023-02-03T18:27:18;22.40;;;10.10;;
29984;SDS011;17387;42.690;23.328;2023-02-03T18:45:25;23.45;;;10.73;;
29984;SDS011;17387;42.690;23.328;2023-02-03T18:47:57;19.42;;;9.35;;
29984;SDS011;17387;42.690;23.328;2023-02-03T18:50:33;21.70;;;10.60;;